Star City, Canada
Current Conditions -  °F | °C
As of 5:00 AM on Monday 20 Oct 2014 (Local Time) from CYBU Reporting Station
Clear Clear  
Wind Chill: 30°   Ceiling: Unl
Heat Index: 36°   Visibility: 9mi
Dew Point: 36°   Wind: 7mph
Humidity: 100%   Direction: 110°ESE
Pressure: 29.87"   Gusts: NA
Location:  52.87°N, 104.33°W
Report Text: CYBU 201100Z AUTO 11006KT 9SM CLR 02/02 A2987 RMK SLP126
Loading
Personal Weather Stations






























Interactive Weather Map
Tropical Storm Tracking
New forecast layout! Learn more

10-Day Weather Forecast

Advertisements
Track Severe Weather on mobile